D/T METAR WX W/DIR W/SPE G/SPE TEMP DEWP
20/06/19 15:50 EGDM 201450Z 24014KT 9999 -SHRA FEW032 BKN050 BKN080 13/10 Q1014 TEMPO SCT022 RMK BLU TEMPO WHT -SHRA WSW (240°) 16.1mph 13°C 10°C
20/06/19 15:20 EGDM 201420Z 25011KT 9999 -SHRA FEW030 SCT050 BKN080 16/09 Q1014 TEMPO SCT022 RMK BLU TEMPO WHT -SHRA WSW (250°) 12.7mph 16°C 9°C
20/06/19 14:50 EGDM 201350Z 25009KT 9999 FEW030 SCT045 BKN080 17/10 Q1014 TEMPO -SHRA SCT022 RMK BLU TEMPO WHT WSW (250°) 10.4mph 17°C 10°C
20/06/19 14:20 EGDM 201320Z 24008KT 9999 FEW030 SCT045 BKN070 16/10 Q1014 NOSIG RMK BLU BLU WSW (240°) 9.2mph 16°C 10°C
20/06/19 13:50 EGDM 201250Z 25011KT 9999 VCSH FEW028 BKN050 BKN080 14/10 Q1014 TEMPO -SHRA SCT024 RMK BLU TEMPO WHT VCSH WSW (250°) 12.7mph 14°C 10°C
20/06/19 13:20 EGDM 201220Z 24011KT 9999 FEW028 SCT050 BKN070 15/09 Q1014 TEMPO -SHRA SCT022 RMK BLU TEMPO WHT WSW (240°) 12.7mph 15°C 9°C
20/06/19 12:50 EGDM 201150Z 23011KT 9999 FEW028 SCT050 BKN070 16/09 Q1014 TEMPO -SHRA SCT022 RMK BLU TEMPO WHT SW (230°) 12.7mph 16°C 9°C
20/06/19 12:19 EGDM 201119Z 25012KT 9999 VCSH FEW026 BKN055 15/09 Q1013 TEMPO -SHRA SCT022 RMK BLU TEMPO WHT VCSH WSW (250°) 13.8mph 15°C 9°C
20/06/19 11:20 EGDM 201020Z 24010KT 9999 SCT025 BKN060 15/09 Q1013 TEMPO -SHRA SCT022 RMK BLU TEMPO WHT WSW (240°) 11.5mph 15°C 9°C
20/06/19 10:50 EGDM 200950Z 24012KT 9999 SCT025 BKN070 15/10 Q1013 NOSIG RMK BLU BLU WSW (240°) 13.8mph 15°C 10°C
20/06/19 10:21 EGDM 200921Z 24011KT 9999 SCT018 BKN060 15/10 Q1013 BECMG SCT025 RMK WHT BECMG BLU WSW (240°) 12.7mph 15°C 10°C
20/06/19 09:50 EGDM 200850Z 25012KT 9999 SCT015 BKN060 14/10 Q1013 BECMG SCT025 RMK WHT BECMG BLU WSW (250°) 13.8mph 14°C 10°C
20/06/19 09:20 EGDM 200820Z 26012KT 9999 FEW014 BKN060 14/11 Q1012 TEMPO SCT020 RMK BLU TEMPO WHT W (260°) 13.8mph 14°C 11°C
20/06/19 08:50 EGDM 200750Z 26011KT 9999 FEW014 BKN070 14/11 Q1012 TEMPO SCT016 RMK BLU TEMPO WHT W (260°) 12.7mph 14°C 11°C
20/06/19 08:21 EGDM 200721Z 26010KT 9999 FEW012 14/11 Q1012 TEMPO SCT015 RMK BLU TEMPO WHT W (260°) 11.5mph 14°C 11°C
20/06/19 07:50 EGDM 200650Z 27008KT 9999 FEW010 13/10 Q1012 TEMPO SCT015 RMK BLU TEMPO WHT W (270°) 9.2mph 13°C 10°C
20/06/19 06:50 EGDM 200550Z 26006KT 9999 FEW008 11/10 Q1012 RMK BLU W (260°) 6.9mph 11°C 10°C
20/06/19 05:50 EGDM 200450Z AUTO 25003KT 9999 NCD 09/08 Q1012 WSW (250°) 3.5mph 9°C 8°C
20/06/19 04:50 EGDM 200350Z AUTO 27007KT 9000 NCD 09/08 Q1011 W (270°) 8.1mph 9°C 8°C
20/06/19 03:50 EGDM 200250Z AUTO 32004KT 9999 NCD 09/09 Q1011 NW (320°) 4.6mph 9°C 9°C
20/06/19 02:50 EGDM 200150Z AUTO 32005KT 9999 NCD 10/09 Q1011 NW (320°) 5.8mph 10°C 9°C
20/06/19 01:50 EGDM 200050Z AUTO 29007KT 9999 FEW060/// SCT130/// 11/09 Q1011 WNW (290°) 8.1mph 11°C 9°C
20/06/19 00:50 EGDM 192350Z AUTO 28009KT 9999 SCT060/// OVC130/// 12/09 Q1011 W (280°) 10.4mph 12°C 9°C
19/06/19 23:50 EGDM 192250Z AUTO 28009KT 9999 OVC060/// 13/09 Q1010 W (280°) 10.4mph 13°C 9°C
19/06/19 22:50 EGDM 192150Z AUTO 28008KT 9999 OVC060/// 14/10 Q1010 RERA W (280°) 9.2mph 14°C 10°C
19/06/19 21:50 EGDM 192050Z AUTO 27007KT 9999 BKN050/// 14/12 Q1010 W (270°) 8.1mph 14°C 12°C
19/06/19 20:50 EGDM 191950Z AUTO 28007KT 9999 FEW011/// BKN041/// 15/13 Q1009 W (280°) 8.1mph 15°C 13°C
19/06/19 19:50 EGDM 191850Z 26003KT 9999 FEW015 BKN045 16/14 Q1009 NOSIG RMK BLU BLU W (260°) 3.5mph 16°C 14°C
19/06/19 19:22 EGDM 191822Z 32003KT 9999 FEW013 SCT020 OVC035 15/13 Q1009 BECMG BKN035 RMK WHT BECMG BLU NW (320°) 3.5mph 15°C 13°C
19/06/19 18:50 EGDM 191750Z 32009KT 9999 -RA SCT013 BKN020 16/13 Q1009 BECMG FEW013 RMK GRN BECMG BLU -RA NW (320°) 10.4mph 16°C 13°C
19/06/19 18:40 EGDM 191740Z 32008KT 9999 SCT013 BKN020 BKN040 17/13 Q1008 BECMG FEW013 RMK GRN BECMG BLU NW (320°) 9.2mph 17°C 13°C
19/06/19 18:20 EGDM 191720Z 31007KT 9999 FEW013 BKN030 16/13 Q1008 TEMPO SCT013 RMK BLU TEMPO GRN NW (310°) 8.1mph 16°C 13°C
19/06/19 16:50 EGDM 191550Z 27006KT 9999 FEW017 BKN035 OVC060 17/13 Q1008 TEMPO SCT017 RMK BLU TEMPO WHT W (270°) 6.9mph 17°C 13°C
19/06/19 16:23 EGDM 191523Z 29008KT 9999 FEW017 BKN035 OVC060 18/13 Q1008 TEMPO SCT017 RMK BLU TEMPO WHT WNW (290°) 9.2mph 18°C 13°C
19/06/19 15:50 EGDM 191450Z 30008KT 9999 FEW017 BKN035 OVC060 18/14 Q1008 TEMPO SCT015 RMK BLU TEMPO WHT WNW (300°) 9.2mph 18°C 14°C
19/06/19 14:50 EGDM 191350Z 29006KT 9999 FEW015 BKN032 17/14 Q1008 TEMPO SCT015 RMK BLU TEMPO WHT WNW (290°) 6.9mph 17°C 14°C
19/06/19 14:20 EGDM 191320Z 27006KT 9999 -RA SCT015 BKN037 17/14 Q1008 BECMG FEW018 RMK WHT BECMG BLU -RA W (270°) 6.9mph 17°C 14°C
19/06/19 13:50 EGDM 191250Z 30006KT 9999 FEW016 BKN037 17/14 Q1008 TEMPO SCT016 RMK BLU TEMPO WHT WNW (300°) 6.9mph 17°C 14°C
19/06/19 13:20 EGDM 191220Z 29004KT 9999 FEW016 OVC043 17/14 Q1008 TEMPO SCT016 RMK BLU TEMPO WHT WNW (290°) 4.6mph 17°C 14°C
19/06/19 12:20 EGDM 191120Z 29005KT 9999 -RA FEW015 BKN030 17/14 Q1008 TEMPO SCT015 RMK BLU TEMPO WHT -RA WNW (290°) 5.8mph 17°C 14°C
19/06/19 11:50 EGDM 191050Z 30006KT 9999 -RA FEW012 SCT015 BKN030 17/14 Q1008 TEMPO FEW015 RMK WHT TEMPO BLU -RA WNW (300°) 6.9mph 17°C 14°C
19/06/19 11:20 EGDM 191020Z 33006KT 9999 -RA SCT012 BKN023 BKN090 17/14 Q1008 BECMG FEW012 BKN023 RMK GRN BECMG WHT -RA NNW (330°) 6.9mph 17°C 14°C
19/06/19 10:50 EGDM 190950Z 34004KT 9999 -RA SCT011 BKN018 17/14 Q1008 BECMG BKN022 RMK GRN BECMG WHT -RA NNW (340°) 4.6mph 17°C 14°C
19/06/19 10:20 EGDM 190920Z 34006KT 9999 SCT008 OVC012 16/13 Q1008 NOSIG RMK GRN GRN NNW (340°) 6.9mph 16°C 13°C
19/06/19 09:50 EGDM 190850Z 33007KT 9999 SCT007 BKN010 16/13 Q1008 NOSIG RMK GRN GRN NNW (330°) 8.1mph 16°C 13°C
19/06/19 09:20 EGDM 190820Z 35007KT 8000 HZ BKN006 16/14 Q1008 BECMG BKN012 RMK YLO1 BECMG GRN HZ N (350°) 8.1mph 16°C 14°C
19/06/19 08:50 EGDM 190750Z 33008KT 7000 BR OVC005 15/14 Q1008 BECMG 9999 NSW BKN010 RMK YLO1 BECMG GRN BR NNW (330°) 9.2mph 15°C 14°C
19/06/19 08:20 EGDM 190720Z 32007KT 5000 BR OVC004 14/14 Q1007 BECMG 8000 HZ BKN006 RMK YLO2 BECMG YLO1 BR NW (320°) 8.1mph 14°C 14°C